Hirundo — FAA5454 — position and weather

sailwx.info

Track history (hours):
 
Tides and Currents Weather Stations Pressure Air Temp Water Temp Dewpoint Dewpoint Depression Visibility Wind Speed Wind Dir Waves Ship Positions

Hirundo

Last reported at 2018-Feb-22 10:00 UTC. Time now 2018-Feb-23 00:56 UTC.
Position N 17°55' W 062°55'.

Length 40 m; draft 11 m.

Type: Ship (hazmat cat D). MMSI: 329010570.

Date/timePositionNaut miles runAvg speedWind from/ knotsBaromVisibWave heightAir tempDewpointWater temp
2018-Feb-22 10:00N 17°55' W 062°55'4 8.0
2018-Feb-22 09:28N 17°57' W 062°59'4 8.2
2018-Feb-22 08:59N 17°59' W 063°02'5 8.4
2018-Feb-22 08:26N 18°01' W 063°06'4 9.0
2018-Feb-22 07:57N 18°04' W 063°10'4 9.5
2018-Feb-22 07:30N 18°05' W 063°05'0 0.1
2018-Feb-22 06:50N 18°05' W 063°05'0 0.0
2018-Feb-22 06:19N 18°05' W 063°05'0 0.0
2018-Feb-22 05:35N 18°05' W 063°05'0 0.0
2018-Feb-22 05:23N 18°05' W 063°05'0 0.0
2018-Feb-22 04:52N 18°05' W 063°05'0 0.0
2018-Feb-22 04:23N 18°05' W 063°05'0 0.0
2018-Feb-22 03:52N 18°05' W 063°05'0 0.0
2018-Feb-22 03:26N 18°05' W 063°05'0 0.0
2018-Feb-22 02:56N 18°05' W 063°05'0 0.0
2018-Feb-22 02:26N 18°05' W 063°05'0 0.0
2018-Feb-22 01:41N 18°05' W 063°05'0 0.0
2018-Feb-22 01:22N 18°05' W 063°05'0 0.0
2018-Feb-22 00:52N 18°05' W 063°05'0 0.3
2018-Feb-22 00:23N 18°05' W 063°05'0 0.0
2018-Feb-21 23:50N 18°05' W 063°05'0 0.0
2018-Feb-21 23:30N 18°05' W 063°05'4 7.7
2018-Feb-21 23:00N 18°05' W 063°09'4 8.3
2018-Feb-21 22:30N 18°01' W 063°06'14 4.3
2018-Feb-21 19:15N 17°54' W 062°54'2 7.9
2018-Feb-21 19:00N 17°55' W 062°56'4 8.0
2018-Feb-21 18:30N 17°57' W 062°59'4 7.5
2018-Feb-21 17:59N 17°60' W 063°02'4 8.2
2018-Feb-21 17:30N 18°01' W 063°06'4 8.0
2018-Feb-21 16:57N 18°05' W 063°09'4 6.6
2018-Feb-21 16:21N 18°05' W 063°05'0 0.0
2018-Feb-21 16:00N 18°05' W 063°05'0 0.0
2018-Feb-21 15:30N 18°05' W 063°05'1 1.1
2018-Feb-21 14:57N 18°06' W 063°05'15 2.8
2018-Feb-21 09:32N 17°54' W 062°55'0 9.6
2018-Feb-21 09:30N 17°55' W 062°55'4 8.2
2018-Feb-21 09:00N 17°56' W 062°59'4 8.3
2018-Feb-21 08:30N 17°59' W 063°02'5 8.4
2018-Feb-21 07:58N 18°01' W 063°06'4 8.5
2018-Feb-21 07:28N 18°04' W 063°09'4 7.5
2018-Feb-21 06:55N 18°05' W 063°05'0 0.0
2018-Feb-21 06:25N 18°05' W 063°05'0 0.0
2018-Feb-21 05:40N 18°05' W 063°05'0 0.0
2018-Feb-21 05:22N 18°05' W 063°05'0 0.0
2018-Feb-21 04:58N 18°05' W 063°05'0 0.0
2018-Feb-21 04:25N 18°05' W 063°05'0 0.0
2018-Feb-21 03:58N 18°05' W 063°05'0 0.0
2018-Feb-21 03:28N 18°05' W 063°05'0 0.0
2018-Feb-21 02:58N 18°05' W 063°05'0 0.0
2018-Feb-21 02:16N 18°05' W 063°05'0 0.0
2018-Feb-21 01:58N 18°05' W 063°05'0 0.0
2018-Feb-21 01:28N 18°05' W 063°05'0 0.2
2018-Feb-21 00:50N 18°05' W 063°05'15 3.5
2018-Feb-20 20:36N 17°54' W 062°54'1 8.6
2018-Feb-20 20:29N 17°55' W 062°55'4 8.5
2018-Feb-20 19:59N 17°57' W 062°59'5 8.5
2018-Feb-20 19:23N 17°60' W 063°03'5 8.9
2018-Feb-20 18:51N 18°02' W 063°08'3 8.2
2018-Feb-20 18:29N 18°05' W 063°09'4 7.6
2018-Feb-20 17:58N 18°05' W 063°05'0 0.0
2018-Feb-20 17:28N 18°05' W 063°05'0 0.0
2018-Feb-20 16:57N 18°05' W 063°05'15 2.2
2018-Feb-20 10:04N 17°54' W 062°54'1 8.1
2018-Feb-20 10:00N 17°54' W 062°54'4 7.7
2018-Feb-20 09:28N 17°56' W 062°58'4 7.9
2018-Feb-20 09:00N 17°58' W 063°01'4 7.6
2018-Feb-20 08:29N 18°00' W 063°05'4 8.6
2018-Feb-20 08:00N 18°02' W 063°09'3 5.6
2018-Feb-20 07:30N 18°05' W 063°07'2 3.5
2018-Feb-20 06:52N 18°05' W 063°05'0 0.0
2018-Feb-20 06:22N 18°05' W 063°05'0 0.0
2018-Feb-20 05:55N 18°05' W 063°05'0 0.0
2018-Feb-20 05:22N 18°05' W 063°05'0 0.0
2018-Feb-20 04:55N 18°05' W 063°05'0 0.0
2018-Feb-20 04:25N 18°05' W 063°05'0 0.0
2018-Feb-20 03:55N 18°05' W 063°05'0 0.0
2018-Feb-20 03:28N 18°05' W 063°05'0 0.0
2018-Feb-20 02:55N 18°05' W 063°05'0 0.0
2018-Feb-20 02:28N 18°05' W 063°05'0 0.0
2018-Feb-20 01:55N 18°05' W 063°05'0 0.0
2018-Feb-20 01:25N 18°05' W 063°05'0 0.0
2018-Feb-20 00:58N 18°05' W 063°05'0 0.0
2018-Feb-20 00:28N 18°05' W 063°05'0 0.0
2018-Feb-19 23:58N 18°05' W 063°05'0 0.0
2018-Feb-19 23:28N 18°05' W 063°05'0 0.0
2018-Feb-19 22:58N 18°05' W 063°05'0 0.0
2018-Feb-19 22:28N 18°05' W 063°05'0 0.0
2018-Feb-19 21:58N 18°05' W 063°05'0 0.0
2018-Feb-19 21:25N 18°05' W 063°05'15 2.8
2018-Feb-19 16:10N 17°54' W 062°54'2 8.1
2018-Feb-19 15:52N 17°55' W 062°57'5 8.0
2018-Feb-19 15:12N 17°58' W 063°01'1 7.5
2018-Feb-19 15:00N 17°59' W 063°02'6 8.2
2018-Feb-19 14:19N 18°02' W 063°08'3 9.0
2018-Feb-19 13:58N 18°04' W 063°10'4 9.4
2018-Feb-19 13:29N 18°05' W 063°05'0 0.2
2018-Feb-19 12:59N 18°05' W 063°05'0 0.0
2018-Feb-19 12:29N 18°05' W 063°05'0 0.0
2018-Feb-19 11:56N 18°05' W 063°05'0 0.0
2018-Feb-19 11:29N 18°05' W 063°05'0 0.0
2018-Feb-19 10:59N 18°05' W 063°05'0 0.0
2018-Feb-19 10:29N 18°05' W 063°05'0 0.0
2018-Feb-19 09:59N 18°05' W 063°05'0 0.0
2018-Feb-19 09:29N 18°05' W 063°05'0 0.0
2018-Feb-19 08:50N 18°05' W 063°05'0 0.0
2018-Feb-19 08:20N 18°05' W 063°05'0 0.0
2018-Feb-19 07:50N 18°05' W 063°05'0 0.0
2018-Feb-19 07:20N 18°05' W 063°05'0 0.0
2018-Feb-19 06:50N 18°05' W 063°05'0 0.0
2018-Feb-19 06:23N 18°05' W 063°05'0 0.0
2018-Feb-19 05:53N 18°05' W 063°05'0 0.0
2018-Feb-19 05:23N 18°05' W 063°05'0 0.0
2018-Feb-19 04:53N 18°05' W 063°05'0 0.0
2018-Feb-19 04:23N 18°05' W 063°05'0 0.0
2018-Feb-19 03:53N 18°05' W 063°05'0 0.0
2018-Feb-19 03:26N 18°05' W 063°05'0 0.0
2018-Feb-19 02:53N 18°05' W 063°05'0 0.0
2018-Feb-19 02:26N 18°05' W 063°05'0 0.0
2018-Feb-19 01:56N 18°05' W 063°05'0 0.0
2018-Feb-19 01:23N 18°05' W 063°05'0 0.0
2018-Feb-19 00:53N 18°05' W 063°05'0 0.0
2018-Feb-19 00:29N 18°05' W 063°05'0 0.0
2018-Feb-18 23:59N 18°05' W 063°05'0 0.0
2018-Feb-18 23:29N 18°05' W 063°05'0 0.0
2018-Feb-18 22:59N 18°05' W 063°05'0 0.0
2018-Feb-18 22:29N 18°05' W 063°05'0 0.0
2018-Feb-18 21:59N 18°05' W 063°05'0 0.0
2018-Feb-18 21:29N 18°05' W 063°05'0 0.0
2018-Feb-18 20:59N 18°05' W 063°05'0 0.0
2018-Feb-18 20:26N 18°05' W 063°05'0 0.0
2018-Feb-18 19:59N 18°05' W 063°05'0 0.0
2018-Feb-18 19:29N 18°05' W 063°05'0 0.0
2018-Feb-18 18:59N 18°05' W 063°05'0 0.0
2018-Feb-18 18:20N 18°05' W 063°05'0 0.0
2018-Feb-18 17:47N 18°05' W 063°05'0 0.0
2018-Feb-18 17:20N 18°05' W 063°05'0 0.0
2018-Feb-18 16:50N 18°05' W 063°05'0 0.0
2018-Feb-18 16:23N 18°05' W 063°05'0 0.0
2018-Feb-18 13:14N 18°05' W 063°05'0 0.0
2018-Feb-18 12:56N 18°05' W 063°05'0 0.0
2018-Feb-18 12:29N 18°05' W 063°05'0 0.0
2018-Feb-18 11:56N 18°05' W 063°05'0 0.0
2018-Feb-18 11:29N 18°05' W 063°05'0 0.0
2018-Feb-18 10:59N 18°05' W 063°05'0 0.0
2018-Feb-18 10:29N 18°05' W 063°05'0 0.0
2018-Feb-18 09:59N 18°05' W 063°05'0 0.0
2018-Feb-18 09:29N 18°05' W 063°05'0 0.0
2018-Feb-18 08:59N 18°05' W 063°05'0 0.0
2018-Feb-18 08:20N 18°05' W 063°05'0 0.0
2018-Feb-18 07:50N 18°05' W 063°05'0 0.0
2018-Feb-18 07:20N 18°05' W 063°05'0 0.0
2018-Feb-18 06:47N 18°05' W 063°05'0 0.0
2018-Feb-18 06:23N 18°05' W 063°05'0 0.0
2018-Feb-18 05:53N 18°05' W 063°05'0 0.0
2018-Feb-18 05:23N 18°05' W 063°05'0 0.0
2018-Feb-18 04:50N 18°05' W 063°05'0 0.0
2018-Feb-18 04:23N 18°05' W 063°05'0 0.0
2018-Feb-18 03:56N 18°05' W 063°05'0 0.0
2018-Feb-18 03:26N 18°05' W 063°05'0 0.0
2018-Feb-18 02:53N 18°05' W 063°05'0 0.0
2018-Feb-18 02:26N 18°05' W 063°05'0 0.0
2018-Feb-18 01:56N 18°05' W 063°05'0 0.0
2018-Feb-18 01:26N 18°05' W 063°05'0 0.0
2018-Feb-18 00:59N 18°05' W 063°05'0 0.0
2018-Feb-18 00:23N 18°05' W 063°05'0 0.0
2018-Feb-17 23:56N 18°05' W 063°05'0 0.0
2018-Feb-17 23:29N 18°05' W 063°05'0 0.0
2018-Feb-17 22:59N 18°05' W 063°05'0 0.0
2018-Feb-17 22:26N 18°05' W 063°05'0 0.0
2018-Feb-17 21:56N 18°05' W 063°05'0 0.0
2018-Feb-17 21:26N 18°05' W 063°05'0 0.0
2018-Feb-17 20:59N 18°05' W 063°05'0 0.0
2018-Feb-17 20:29N 18°05' W 063°05'0 0.0
2018-Feb-17 19:59N 18°05' W 063°05'0 0.0
2018-Feb-17 19:29N 18°05' W 063°05'0 0.0
2018-Feb-17 18:59N 18°05' W 063°05'0 0.0
2018-Feb-17 18:20N 18°05' W 063°05'0 0.0
2018-Feb-17 17:59N 18°05' W 063°05'0 0.0
2018-Feb-17 17:29N 18°05' W 063°05'0 0.0
2018-Feb-17 16:53N 18°05' W 063°05'0 0.0
2018-Feb-17 16:20N 18°05' W 063°05'0 0.0
2018-Feb-17 15:53N 18°05' W 063°05'0 0.0
2018-Feb-17 15:23N 18°05' W 063°05'0 0.0
2018-Feb-17 14:53N 18°05' W 063°05'0 0.0
2018-Feb-17 14:23N 18°05' W 063°05'0 0.0
2018-Feb-17 13:53N 18°05' W 063°05'2 0.4
2018-Feb-17 07:40N 18°07' W 063°04'1 8.4
2018-Feb-17 07:30N 18°06' W 063°05'1 1.9
2018-Feb-17 06:53N 18°05' W 063°05'0 0.0
2018-Feb-17 06:24N 18°05' W 063°05'0 0.0
2018-Feb-17 05:54N 18°05' W 063°05'0 0.0
2018-Feb-17 05:23N 18°05' W 063°05'0 0.0
2018-Feb-17 04:53N 18°05' W 063°05'0 0.0
2018-Feb-17 04:26N 18°05' W 063°05'0 0.0
2018-Feb-17 03:57N 18°05' W 063°05'0 0.0
2018-Feb-17 03:26N 18°05' W 063°05'0 0.0
2018-Feb-17 02:56N 18°05' W 063°05'0 0.0
2018-Feb-17 02:26N 18°05' W 063°05'0 0.0
2018-Feb-17 01:56N 18°05' W 063°05'0 0.0
2018-Feb-17 01:23N 18°05' W 063°05'0 0.0
2018-Feb-17 00:59N 18°05' W 063°05'0 0.0
2018-Feb-17 00:29N 18°05' W 063°05'0 0.0
2018-Feb-16 23:56N 18°05' W 063°05'0 0.0
2018-Feb-16 23:29N 18°05' W 063°05'0 0.0
2018-Feb-16 22:59N 18°05' W 063°05'0 0.0
2018-Feb-16 22:28N 18°05' W 063°05'0 0.0
2018-Feb-16 21:55N 18°05' W 063°05'0 0.0
2018-Feb-16 21:28N 18°05' W 063°05'0 0.0
2018-Feb-16 20:43N 18°05' W 063°05'0 0.0
2018-Feb-16 20:28N 18°05' W 063°05'0 0.0
2018-Feb-16 19:58N 18°05' W 063°05'0 0.0
2018-Feb-16 19:28N 18°05' W 063°05'0 0.0
2018-Feb-16 18:58N 18°05' W 063°05'0 0.0
2018-Feb-16 18:28N 18°05' W 063°05'0 0.0
2018-Feb-16 17:58N 18°05' W 063°05'0 0.0
2018-Feb-16 17:20N 18°05' W 063°05'0 0.0
2018-Feb-16 16:53N 18°05' W 063°05'0 0.0
2018-Feb-16 16:23N 18°05' W 063°05'0 0.0
2018-Feb-16 15:53N 18°05' W 063°05'0 0.0
2018-Feb-16 15:22N 18°05' W 063°05'3 0.4
2018-Feb-16 07:51N 18°07' W 063°04'3 4.8
2018-Feb-16 07:16N 18°05' W 063°05'0 0.0
2018-Feb-16 06:49N 18°05' W 063°05'0 0.0
2018-Feb-16 06:16N 18°05' W 063°05'0 0.0
2018-Feb-16 05:34N 18°05' W 063°05'0 0.0
2018-Feb-16 05:19N 18°05' W 063°05'0 0.0
2018-Feb-16 04:49N 18°05' W 063°05'0 0.0
2018-Feb-16 04:22N 18°05' W 063°05'0 0.0
2018-Feb-16 04:01N 18°05' W 063°05'0 0.0
2018-Feb-16 03:30N 18°05' W 063°05'0 0.0
2018-Feb-16 02:52N 18°05' W 063°05'0 0.0
2018-Feb-16 02:19N 18°05' W 063°05'0 0.0
2018-Feb-16 01:52N 18°05' W 063°05'0 0.0
2018-Feb-16 01:22N 18°05' W 063°05'0 0.0
2018-Feb-16 00:55N 18°05' W 063°05'0 0.0
2018-Feb-16 00:22N 18°05' W 063°05'0 0.0
2018-Feb-15 23:55N 18°05' W 063°05'0 0.0
2018-Feb-15 23:10N 18°05' W 063°05'0 0.0
2018-Feb-15 22:55N 18°05' W 063°05'0 0.0
2018-Feb-15 22:25N 18°05' W 063°05'0 0.0
2018-Feb-15 21:58N 18°05' W 063°05'0 0.0
2018-Feb-15 21:25N 18°05' W 063°05'0 0.0
2018-Feb-15 20:58N 18°05' W 063°05'0 0.0
2018-Feb-15 19:55N 18°05' W 063°05'0 0.0
2018-Feb-15 19:28N 18°05' W 063°05'0 0.0
2018-Feb-15 18:58N 18°05' W 063°05'0 0.0
2018-Feb-15 18:27N 18°05' W 063°05'0 0.0
2018-Feb-15 17:57N 18°05' W 063°05'0 0.0
2018-Feb-15 17:28N 18°05' W 063°05'14 1.7
2018-Feb-15 09:36N 17°55' W 062°55'15 8.0
2018-Feb-15 07:45N 18°08' W 063°03'2 8.3
2018-Feb-15 07:29N 18°06' W 063°05'1 1.8
2018-Feb-15 07:00N 18°05' W 063°05'0 0.0
2018-Feb-15 06:18N 18°05' W 063°05'0 0.0
2018-Feb-15 06:00N 18°05' W 063°05'0 0.0
2018-Feb-15 05:27N 18°05' W 063°05'0 0.0
2018-Feb-15 05:00N 18°05' W 063°05'0 0.0
2018-Feb-15 04:30N 18°05' W 063°05'0 0.0
2018-Feb-15 04:00N 18°05' W 063°05'0 0.0
2018-Feb-15 03:30N 18°05' W 063°05'0 0.0
2018-Feb-15 02:48N 18°05' W 063°05'0 0.0
2018-Feb-15 02:21N 18°05' W 063°05'0 0.0
2018-Feb-15 01:51N 18°05' W 063°05'0 0.0
2018-Feb-15 01:21N 18°05' W 063°05'0 0.0
2018-Feb-15 00:51N 18°05' W 063°05'15 3.1
2018-Feb-14 19:56N 17°54' W 062°54'5 8.4
2018-Feb-14 19:20N 17°56' W 062°58'3 8.1
2018-Feb-14 18:58N 17°58' W 063°01'4 8.1
2018-Feb-14 18:30N 18°00' W 063°04'4 8.6
2018-Feb-14 18:00N 18°02' W 063°08'3 5.3
2018-Feb-14 17:30N 18°05' W 063°07'2 3.7
2018-Feb-14 16:54N 18°05' W 063°05'0 0.0
2018-Feb-14 16:24N 18°05' W 063°05'0 0.0
2018-Feb-14 15:51N 18°05' W 063°05'15 2.7
2018-Feb-14 10:08N 17°54' W 062°54'1 8.2
2018-Feb-14 09:59N 17°55' W 062°55'6 7.8
2018-Feb-14 09:14N 17°58' W 063°00'2 7.7
2018-Feb-14 08:56N 17°59' W 063°02'4 8.0
2018-Feb-14 08:27N 18°01' W 063°06'4 8.7
2018-Feb-14 08:00N 18°03' W 063°09'3 6.5
2018-Feb-14 07:30N 18°05' W 063°07'1 2.0
2018-Feb-14 06:49N 18°05' W 063°05'0 0.0
2018-Feb-14 06:19N 18°05' W 063°05'0 0.0
2018-Feb-14 05:52N 18°05' W 063°05'0 0.0
2018-Feb-14 05:22N 18°05' W 063°05'0 0.0
2018-Feb-14 04:52N 18°05' W 063°05'0 0.0
2018-Feb-14 04:22N 18°05' W 063°05'0 0.0
2018-Feb-14 03:52N 18°05' W 063°05'0 0.0
2018-Feb-14 03:25N 18°05' W 063°05'0 0.0
2018-Feb-14 02:55N 18°05' W 063°05'0 0.0
2018-Feb-14 02:25N 18°05' W 063°05'0 0.0
2018-Feb-14 01:58N 18°05' W 063°05'0 0.0
2018-Feb-14 01:28N 18°05' W 063°05'0 0.0
2018-Feb-14 00:58N 18°05' W 063°05'0 0.0
2018-Feb-14 00:25N 18°05' W 063°05'0 0.0
2018-Feb-13 23:58N 18°05' W 063°05'0 0.0
2018-Feb-13 23:28N 18°05' W 063°05'0 0.0
2018-Feb-13 22:58N 18°05' W 063°05'0 0.0
2018-Feb-13 22:28N 18°05' W 063°05'0 0.0
2018-Feb-13 21:57N 18°05' W 063°05'0 0.0
2018-Feb-13 21:24N 18°05' W 063°05'0 0.0
2018-Feb-13 20:54N 18°05' W 063°05'0 0.0
2018-Feb-13 20:30N 18°05' W 063°05'0 0.0
2018-Feb-13 20:00N 18°05' W 063°05'0 0.0
2018-Feb-13 19:27N 18°05' W 063°05'0 0.0
2018-Feb-13 19:00N 18°05' W 063°05'0 0.0
2018-Feb-13 18:30N 18°05' W 063°05'0 0.0
2018-Feb-13 18:00N 18°05' W 063°05'0 0.0
2018-Feb-13 17:27N 18°05' W 063°05'0 0.0
2018-Feb-13 17:00N 18°05' W 063°05'0 0.0
2018-Feb-13 16:30N 18°05' W 063°05'0 0.0
2018-Feb-13 16:00N 18°05' W 063°05'0 0.0
2018-Feb-13 15:30N 18°05' W 063°05'0 0.0
2018-Feb-13 15:00N 18°05' W 063°05'0 0.0
2018-Feb-13 14:30N 18°05' W 063°05'0 0.0
2018-Feb-13 13:48N 18°05' W 063°05'0 0.0
2018-Feb-13 13:21N 18°05' W 063°05'0 0.0
2018-Feb-13 12:48N 18°05' W 063°05'0 0.0
2018-Feb-13 12:24N 18°05' W 063°05'0 0.0
2018-Feb-13 11:51N 18°05' W 063°05'0 0.0
2018-Feb-13 11:24N 18°05' W 063°05'0 0.0
2018-Feb-13 10:54N 18°05' W 063°05'0 0.0
2018-Feb-13 10:21N 18°05' W 063°05'0 0.0
2018-Feb-13 09:54N 18°05' W 063°05'0 0.0
2018-Feb-13 09:21N 18°05' W 063°05'0 0.0
2018-Feb-13 08:54N 18°05' W 063°05'0 0.0
2018-Feb-13 08:27N 18°05' W 063°05'0 0.0
2018-Feb-13 07:57N 18°05' W 063°05'0 0.0
2018-Feb-13 07:27N 18°05' W 063°05'0 0.0
2018-Feb-13 06:45N 18°05' W 063°05'0 0.0
2018-Feb-13 06:30N 18°05' W 063°05'0 0.0
2018-Feb-13 06:00N 18°05' W 063°05'0 0.0
2018-Feb-13 05:30N 18°05' W 063°05'0 0.0
2018-Feb-13 05:00N 18°05' W 063°05'0 0.0
2018-Feb-13 04:30N 18°05' W 063°05'0 0.0
2018-Feb-13 04:00N 18°05' W 063°05'0 0.0
2018-Feb-13 03:30N 18°05' W 063°05'0 0.0
2018-Feb-13 02:59N 18°05' W 063°05'0 0.0
2018-Feb-13 02:30N 18°05' W 063°05'0 0.0
2018-Feb-13 02:00N 18°05' W 063°05'0 0.0
2018-Feb-13 01:30N 18°05' W 063°05'0 0.0
2018-Feb-13 01:00N 18°05' W 063°05'0 0.0
2018-Feb-13 00:30N 18°05' W 063°05'0 0.0
2018-Feb-13 00:00N 18°05' W 063°05'0 0.0
2018-Feb-12 23:30N 18°05' W 063°05'0 0.0
2018-Feb-12 23:00N 18°05' W 063°05'0 0.0
2018-Feb-12 22:24N 18°05' W 063°05'0 0.0
2018-Feb-12 21:54N 18°05' W 063°05'0 0.0
2018-Feb-12 21:24N 18°05' W 063°05'0 0.0
2018-Feb-12 20:54N 18°05' W 063°05'0 0.0
2018-Feb-12 20:20N 18°05' W 063°05'2 5.9
2018-Feb-12 19:59N 18°05' W 063°07'3 6.1
2018-Feb-12 19:30N 18°03' W 063°09'610.3
2018-Feb-12 18:58N 18°00' W 063°04'510.1
2018-Feb-12 18:30N 17°57' W 063°00'7 2.9
2018-Feb-12 16:00N 17°54' W 062°53'6 7.8
2018-Feb-12 15:13N 17°57' W 062°59'2 8.1
2018-Feb-12 14:57N 17°58' W 063°01'4 7.7
2018-Feb-12 14:29N 18°00' W 063°04'5 9.1
2018-Feb-12 13:58N 18°02' W 063°08'3 5.6
2018-Feb-12 13:24N 18°05' W 063°07'2 2.8
2018-Feb-12 12:52N 18°05' W 063°05'0 0.0
2018-Feb-12 12:25N 18°05' W 063°05'0 0.0
2018-Feb-12 11:55N 18°05' W 063°05'0 0.0
2018-Feb-12 11:25N 18°05' W 063°05'0 0.0
2018-Feb-12 10:52N 18°05' W 063°05'0 0.0
2018-Feb-12 10:25N 18°05' W 063°05'  
Track history (hours):
 
Tides and Currents Weather Stations Pressure Air Temp Water Temp Dewpoint Dewpoint Depression Visibility Wind Speed Wind Dir Waves Ship Positions

Hirundo

Last reported at 2018-Feb-22 10:00 UTC. Time now 2018-Feb-23 00:56 UTC.
Position N 17°55' W 062°55'.

Length 40 m; draft 11 m.

Type: Ship (hazmat cat D). MMSI: 329010570.

Date/timePositionNaut miles runAvg speedWind from/ knotsBaromVisibWave heightAir tempDewpointWater temp
2018-Feb-22 10:00N 17°55' W 062°55'4 8.0
2018-Feb-22 09:28N 17°57' W 062°59'4 8.2
2018-Feb-22 08:59N 17°59' W 063°02'5 8.4
2018-Feb-22 08:26N 18°01' W 063°06'4 9.0
2018-Feb-22 07:57N 18°04' W 063°10'4 9.5
2018-Feb-22 07:30N 18°05' W 063°05'0 0.1
2018-Feb-22 06:50N 18°05' W 063°05'0 0.0
2018-Feb-22 06:19N 18°05' W 063°05'0 0.0
2018-Feb-22 05:35N 18°05' W 063°05'0 0.0
2018-Feb-22 05:23N 18°05' W 063°05'0 0.0
2018-Feb-22 04:52N 18°05' W 063°05'0 0.0
2018-Feb-22 04:23N 18°05' W 063°05'0 0.0
2018-Feb-22 03:52N 18°05' W 063°05'0 0.0
2018-Feb-22 03:26N 18°05' W 063°05'0 0.0
2018-Feb-22 02:56N 18°05' W 063°05'0 0.0
2018-Feb-22 02:26N 18°05' W 063°05'0 0.0
2018-Feb-22 01:41N 18°05' W 063°05'0 0.0
2018-Feb-22 01:22N 18°05' W 063°05'0 0.0
2018-Feb-22 00:52N 18°05' W 063°05'0 0.3
2018-Feb-22 00:23N 18°05' W 063°05'0 0.0
2018-Feb-21 23:50N 18°05' W 063°05'0 0.0
2018-Feb-21 23:30N 18°05' W 063°05'4 7.7
2018-Feb-21 23:00N 18°05' W 063°09'4 8.3
2018-Feb-21 22:30N 18°01' W 063°06'14 4.3
2018-Feb-21 19:15N 17°54' W 062°54'2 7.9
2018-Feb-21 19:00N 17°55' W 062°56'4 8.0
2018-Feb-21 18:30N 17°57' W 062°59'4 7.5
2018-Feb-21 17:59N 17°60' W 063°02'4 8.2
2018-Feb-21 17:30N 18°01' W 063°06'4 8.0
2018-Feb-21 16:57N 18°05' W 063°09'4 6.6
2018-Feb-21 16:21N 18°05' W 063°05'0 0.0
2018-Feb-21 16:00N 18°05' W 063°05'0 0.0
2018-Feb-21 15:30N 18°05' W 063°05'1 1.1
2018-Feb-21 14:57N 18°06' W 063°05'15 2.8
2018-Feb-21 09:32N 17°54' W 062°55'0 9.6
2018-Feb-21 09:30N 17°55' W 062°55'4 8.2
2018-Feb-21 09:00N 17°56' W 062°59'4 8.3
2018-Feb-21 08:30N 17°59' W 063°02'5 8.4
2018-Feb-21 07:58N 18°01' W 063°06'4 8.5
2018-Feb-21 07:28N 18°04' W 063°09'4 7.5
2018-Feb-21 06:55N 18°05' W 063°05'0 0.0
2018-Feb-21 06:25N 18°05' W 063°05'0 0.0
2018-Feb-21 05:40N 18°05' W 063°05'0 0.0
2018-Feb-21 05:22N 18°05' W 063°05'0 0.0
2018-Feb-21 04:58N 18°05' W 063°05'0 0.0
2018-Feb-21 04:25N 18°05' W 063°05'0 0.0
2018-Feb-21 03:58N 18°05' W 063°05'0 0.0
2018-Feb-21 03:28N 18°05' W 063°05'0 0.0
2018-Feb-21 02:58N 18°05' W 063°05'0 0.0
2018-Feb-21 02:16N 18°05' W 063°05'0 0.0
2018-Feb-21 01:58N 18°05' W 063°05'0 0.0
2018-Feb-21 01:28N 18°05' W 063°05'0 0.2
2018-Feb-21 00:50N 18°05' W 063°05'15 3.5
2018-Feb-20 20:36N 17°54' W 062°54'1 8.6
2018-Feb-20 20:29N 17°55' W 062°55'4 8.5
2018-Feb-20 19:59N 17°57' W 062°59'5 8.5
2018-Feb-20 19:23N 17°60' W 063°03'5 8.9
2018-Feb-20 18:51N 18°02' W 063°08'3 8.2
2018-Feb-20 18:29N 18°05' W 063°09'4 7.6
2018-Feb-20 17:58N 18°05' W 063°05'0 0.0
2018-Feb-20 17:28N 18°05' W 063°05'0 0.0
2018-Feb-20 16:57N 18°05' W 063°05'15 2.2
2018-Feb-20 10:04N 17°54' W 062°54'1 8.1
2018-Feb-20 10:00N 17°54' W 062°54'4 7.7
2018-Feb-20 09:28N 17°56' W 062°58'4 7.9
2018-Feb-20 09:00N 17°58' W 063°01'4 7.6
2018-Feb-20 08:29N 18°00' W 063°05'4 8.6
2018-Feb-20 08:00N 18°02' W 063°09'3 5.6
2018-Feb-20 07:30N 18°05' W 063°07'2 3.5
2018-Feb-20 06:52N 18°05' W 063°05'0 0.0
2018-Feb-20 06:22N 18°05' W 063°05'0 0.0
2018-Feb-20 05:55N 18°05' W 063°05'0 0.0
2018-Feb-20 05:22N 18°05' W 063°05'0 0.0
2018-Feb-20 04:55N 18°05' W 063°05'0 0.0
2018-Feb-20 04:25N 18°05' W 063°05'0 0.0
2018-Feb-20 03:55N 18°05' W 063°05'0 0.0
2018-Feb-20 03:28N 18°05' W 063°05'0 0.0
2018-Feb-20 02:55N 18°05' W 063°05'0 0.0
2018-Feb-20 02:28N 18°05' W 063°05'0 0.0
2018-Feb-20 01:55N 18°05' W 063°05'0 0.0
2018-Feb-20 01:25N 18°05' W 063°05'0 0.0
2018-Feb-20 00:58N 18°05' W 063°05'0 0.0
2018-Feb-20 00:28N 18°05' W 063°05'0 0.0
2018-Feb-19 23:58N 18°05' W 063°05'0 0.0
2018-Feb-19 23:28N 18°05' W 063°05'0 0.0
2018-Feb-19 22:58N 18°05' W 063°05'0 0.0
2018-Feb-19 22:28N 18°05' W 063°05'0 0.0
2018-Feb-19 21:58N 18°05' W 063°05'0 0.0
2018-Feb-19 21:25N 18°05' W 063°05'15 2.8
2018-Feb-19 16:10N 17°54' W 062°54'2 8.1
2018-Feb-19 15:52N 17°55' W 062°57'5 8.0
2018-Feb-19 15:12N 17°58' W 063°01'1 7.5
2018-Feb-19 15:00N 17°59' W 063°02'6 8.2
2018-Feb-19 14:19N 18°02' W 063°08'3 9.0
2018-Feb-19 13:58N 18°04' W 063°10'4 9.4
2018-Feb-19 13:29N 18°05' W 063°05'0 0.2
2018-Feb-19 12:59N 18°05' W 063°05'0 0.0
2018-Feb-19 12:29N 18°05' W 063°05'0 0.0
2018-Feb-19 11:56N 18°05' W 063°05'0 0.0
2018-Feb-19 11:29N 18°05' W 063°05'0 0.0
2018-Feb-19 10:59N 18°05' W 063°05'0 0.0
2018-Feb-19 10:29N 18°05' W 063°05'0 0.0
2018-Feb-19 09:59N 18°05' W 063°05'0 0.0
2018-Feb-19 09:29N 18°05' W 063°05'0 0.0
2018-Feb-19 08:50N 18°05' W 063°05'0 0.0
2018-Feb-19 08:20N 18°05' W 063°05'0 0.0
2018-Feb-19 07:50N 18°05' W 063°05'0 0.0
2018-Feb-19 07:20N 18°05' W 063°05'0 0.0
2018-Feb-19 06:50N 18°05' W 063°05'0 0.0
2018-Feb-19 06:23N 18°05' W 063°05'0 0.0
2018-Feb-19 05:53N 18°05' W 063°05'0 0.0
2018-Feb-19 05:23N 18°05' W 063°05'0 0.0
2018-Feb-19 04:53N 18°05' W 063°05'0 0.0
2018-Feb-19 04:23N 18°05' W 063°05'0 0.0
2018-Feb-19 03:53N 18°05' W 063°05'0 0.0
2018-Feb-19 03:26N 18°05' W 063°05'0 0.0
2018-Feb-19 02:53N 18°05' W 063°05'0 0.0
2018-Feb-19 02:26N 18°05' W 063°05'0 0.0
2018-Feb-19 01:56N 18°05' W 063°05'0 0.0
2018-Feb-19 01:23N 18°05' W 063°05'0 0.0
2018-Feb-19 00:53N 18°05' W 063°05'0 0.0
2018-Feb-19 00:29N 18°05' W 063°05'0 0.0
2018-Feb-18 23:59N 18°05' W 063°05'0 0.0
2018-Feb-18 23:29N 18°05' W 063°05'0 0.0
2018-Feb-18 22:59N 18°05' W 063°05'0 0.0
2018-Feb-18 22:29N 18°05' W 063°05'0 0.0
2018-Feb-18 21:59N 18°05' W 063°05'0 0.0
2018-Feb-18 21:29N 18°05' W 063°05'0 0.0
2018-Feb-18 20:59N 18°05' W 063°05'0 0.0
2018-Feb-18 20:26N 18°05' W 063°05'0 0.0
2018-Feb-18 19:59N 18°05' W 063°05'0 0.0
2018-Feb-18 19:29N 18°05' W 063°05'0 0.0
2018-Feb-18 18:59N 18°05' W 063°05'0 0.0
2018-Feb-18 18:20N 18°05' W 063°05'0 0.0
2018-Feb-18 17:47N 18°05' W 063°05'0 0.0
2018-Feb-18 17:20N 18°05' W 063°05'0 0.0
2018-Feb-18 16:50N 18°05' W 063°05'0 0.0
2018-Feb-18 16:23N 18°05' W 063°05'0 0.0
2018-Feb-18 13:14N 18°05' W 063°05'0 0.0
2018-Feb-18 12:56N 18°05' W 063°05'0 0.0
2018-Feb-18 12:29N 18°05' W 063°05'0 0.0
2018-Feb-18 11:56N 18°05' W 063°05'0 0.0
2018-Feb-18 11:29N 18°05' W 063°05'0 0.0
2018-Feb-18 10:59N 18°05' W 063°05'0 0.0
2018-Feb-18 10:29N 18°05' W 063°05'0 0.0
2018-Feb-18 09:59N 18°05' W 063°05'0 0.0
2018-Feb-18 09:29N 18°05' W 063°05'0 0.0
2018-Feb-18 08:59N 18°05' W 063°05'0 0.0
2018-Feb-18 08:20N 18°05' W 063°05'0 0.0
2018-Feb-18 07:50N 18°05' W 063°05'0 0.0
2018-Feb-18 07:20N 18°05' W 063°05'0 0.0
2018-Feb-18 06:47N 18°05' W 063°05'0 0.0
2018-Feb-18 06:23N 18°05' W 063°05'0 0.0
2018-Feb-18 05:53N 18°05' W 063°05'0 0.0
2018-Feb-18 05:23N 18°05' W 063°05'0 0.0
2018-Feb-18 04:50N 18°05' W 063°05'0 0.0
2018-Feb-18 04:23N 18°05' W 063°05'0 0.0
2018-Feb-18 03:56N 18°05' W 063°05'0 0.0
2018-Feb-18 03:26N 18°05' W 063°05'0 0.0
2018-Feb-18 02:53N 18°05' W 063°05'0 0.0
2018-Feb-18 02:26N 18°05' W 063°05'0 0.0
2018-Feb-18 01:56N 18°05' W 063°05'0 0.0
2018-Feb-18 01:26N 18°05' W 063°05'0 0.0
2018-Feb-18 00:59N 18°05' W 063°05'0 0.0
2018-Feb-18 00:23N 18°05' W 063°05'0 0.0
2018-Feb-17 23:56N 18°05' W 063°05'0 0.0
2018-Feb-17 23:29N 18°05' W 063°05'0 0.0
2018-Feb-17 22:59N 18°05' W 063°05'0 0.0
2018-Feb-17 22:26N 18°05' W 063°05'0 0.0
2018-Feb-17 21:56N 18°05' W 063°05'0 0.0
2018-Feb-17 21:26N 18°05' W 063°05'0 0.0
2018-Feb-17 20:59N 18°05' W 063°05'0 0.0
2018-Feb-17 20:29N 18°05' W 063°05'0 0.0
2018-Feb-17 19:59N 18°05' W 063°05'0 0.0
2018-Feb-17 19:29N 18°05' W 063°05'0 0.0
2018-Feb-17 18:59N 18°05' W 063°05'0 0.0
2018-Feb-17 18:20N 18°05' W 063°05'0 0.0
2018-Feb-17 17:59N 18°05' W 063°05'0 0.0
2018-Feb-17 17:29N 18°05' W 063°05'0 0.0
2018-Feb-17 16:53N 18°05' W 063°05'0 0.0
2018-Feb-17 16:20N 18°05' W 063°05'0 0.0
2018-Feb-17 15:53N 18°05' W 063°05'0 0.0
2018-Feb-17 15:23N 18°05' W 063°05'0 0.0
2018-Feb-17 14:53N 18°05' W 063°05'0 0.0
2018-Feb-17 14:23N 18°05' W 063°05'0 0.0
2018-Feb-17 13:53N 18°05' W 063°05'2 0.4
2018-Feb-17 07:40N 18°07' W 063°04'1 8.4
2018-Feb-17 07:30N 18°06' W 063°05'1 1.9
2018-Feb-17 06:53N 18°05' W 063°05'0 0.0
2018-Feb-17 06:24N 18°05' W 063°05'0 0.0
2018-Feb-17 05:54N 18°05' W 063°05'0 0.0
2018-Feb-17 05:23N 18°05' W 063°05'0 0.0
2018-Feb-17 04:53N 18°05' W 063°05'0 0.0
2018-Feb-17 04:26N 18°05' W 063°05'0 0.0
2018-Feb-17 03:57N 18°05' W 063°05'0 0.0
2018-Feb-17 03:26N 18°05' W 063°05'0 0.0
2018-Feb-17 02:56N 18°05' W 063°05'0 0.0
2018-Feb-17 02:26N 18°05' W 063°05'0 0.0
2018-Feb-17 01:56N 18°05' W 063°05'0 0.0
2018-Feb-17 01:23N 18°05' W 063°05'0 0.0
2018-Feb-17 00:59N 18°05' W 063°05'0 0.0
2018-Feb-17 00:29N 18°05' W 063°05'0 0.0
2018-Feb-16 23:56N 18°05' W 063°05'0 0.0
2018-Feb-16 23:29N 18°05' W 063°05'0 0.0
2018-Feb-16 22:59N 18°05' W 063°05'0 0.0
2018-Feb-16 22:28N 18°05' W 063°05'0 0.0
2018-Feb-16 21:55N 18°05' W 063°05'0 0.0
2018-Feb-16 21:28N 18°05' W 063°05'0 0.0
2018-Feb-16 20:43N 18°05' W 063°05'0 0.0
2018-Feb-16 20:28N 18°05' W 063°05'0 0.0
2018-Feb-16 19:58N 18°05' W 063°05'0 0.0
2018-Feb-16 19:28N 18°05' W 063°05'0 0.0
2018-Feb-16 18:58N 18°05' W 063°05'0 0.0
2018-Feb-16 18:28N 18°05' W 063°05'0 0.0
2018-Feb-16 17:58N 18°05' W 063°05'0 0.0
2018-Feb-16 17:20N 18°05' W 063°05'0 0.0
2018-Feb-16 16:53N 18°05' W 063°05'0 0.0
2018-Feb-16 16:23N 18°05' W 063°05'0 0.0
2018-Feb-16 15:53N 18°05' W 063°05'0 0.0
2018-Feb-16 15:22N 18°05' W 063°05'3 0.4
2018-Feb-16 07:51N 18°07' W 063°04'3 4.8
2018-Feb-16 07:16N 18°05' W 063°05'0 0.0
2018-Feb-16 06:49N 18°05' W 063°05'0 0.0
2018-Feb-16 06:16N 18°05' W 063°05'0 0.0
2018-Feb-16 05:34N 18°05' W 063°05'0 0.0
2018-Feb-16 05:19N 18°05' W 063°05'0 0.0
2018-Feb-16 04:49N 18°05' W 063°05'0 0.0
2018-Feb-16 04:22N 18°05' W 063°05'0 0.0
2018-Feb-16 04:01N 18°05' W 063°05'0 0.0
2018-Feb-16 03:30N 18°05' W 063°05'0 0.0
2018-Feb-16 02:52N 18°05' W 063°05'0 0.0
2018-Feb-16 02:19N 18°05' W 063°05'0 0.0
2018-Feb-16 01:52N 18°05' W 063°05'0 0.0
2018-Feb-16 01:22N 18°05' W 063°05'0 0.0
2018-Feb-16 00:55N 18°05' W 063°05'0 0.0
2018-Feb-16 00:22N 18°05' W 063°05'0 0.0
2018-Feb-15 23:55N 18°05' W 063°05'0 0.0
2018-Feb-15 23:10N 18°05' W 063°05'0 0.0
2018-Feb-15 22:55N 18°05' W 063°05'0 0.0
2018-Feb-15 22:25N 18°05' W 063°05'0 0.0
2018-Feb-15 21:58N 18°05' W 063°05'0 0.0
2018-Feb-15 21:25N 18°05' W 063°05'0 0.0
2018-Feb-15 20:58N 18°05' W 063°05'0 0.0
2018-Feb-15 19:55N 18°05' W 063°05'0 0.0
2018-Feb-15 19:28N 18°05' W 063°05'0 0.0
2018-Feb-15 18:58N 18°05' W 063°05'0 0.0
2018-Feb-15 18:27N 18°05' W 063°05'0 0.0
2018-Feb-15 17:57N 18°05' W 063°05'0 0.0
2018-Feb-15 17:28N 18°05' W 063°05'14 1.7
2018-Feb-15 09:36N 17°55' W 062°55'15 8.0
2018-Feb-15 07:45N 18°08' W 063°03'2 8.3
2018-Feb-15 07:29N 18°06' W 063°05'1 1.8
2018-Feb-15 07:00N 18°05' W 063°05'0 0.0
2018-Feb-15 06:18N 18°05' W 063°05'0 0.0
2018-Feb-15 06:00N 18°05' W 063°05'0 0.0
2018-Feb-15 05:27N 18°05' W 063°05'0 0.0
2018-Feb-15 05:00N 18°05' W 063°05'0 0.0
2018-Feb-15 04:30N 18°05' W 063°05'0 0.0
2018-Feb-15 04:00N 18°05' W 063°05'0 0.0
2018-Feb-15 03:30N 18°05' W 063°05'0 0.0
2018-Feb-15 02:48N 18°05' W 063°05'0 0.0
2018-Feb-15 02:21N 18°05' W 063°05'0 0.0
2018-Feb-15 01:51N 18°05' W 063°05'0 0.0
2018-Feb-15 01:21N 18°05' W 063°05'0 0.0
2018-Feb-15 00:51N 18°05' W 063°05'15 3.1
2018-Feb-14 19:56N 17°54' W 062°54'5 8.4
2018-Feb-14 19:20N 17°56' W 062°58'3 8.1
2018-Feb-14 18:58N 17°58' W 063°01'4 8.1
2018-Feb-14 18:30N 18°00' W 063°04'4 8.6
2018-Feb-14 18:00N 18°02' W 063°08'3 5.3
2018-Feb-14 17:30N 18°05' W 063°07'2 3.7
2018-Feb-14 16:54N 18°05' W 063°05'0 0.0
2018-Feb-14 16:24N 18°05' W 063°05'0 0.0
2018-Feb-14 15:51N 18°05' W 063°05'15 2.7
2018-Feb-14 10:08N 17°54' W 062°54'1 8.2
2018-Feb-14 09:59N 17°55' W 062°55'6 7.8
2018-Feb-14 09:14N 17°58' W 063°00'2 7.7
2018-Feb-14 08:56N 17°59' W 063°02'4 8.0
2018-Feb-14 08:27N 18°01' W 063°06'4 8.7
2018-Feb-14 08:00N 18°03' W 063°09'3 6.5
2018-Feb-14 07:30N 18°05' W 063°07'1 2.0
2018-Feb-14 06:49N 18°05' W 063°05'0 0.0
2018-Feb-14 06:19N 18°05' W 063°05'0 0.0
2018-Feb-14 05:52N 18°05' W 063°05'0 0.0
2018-Feb-14 05:22N 18°05' W 063°05'0 0.0
2018-Feb-14 04:52N 18°05' W 063°05'0 0.0
2018-Feb-14 04:22N 18°05' W 063°05'0 0.0
2018-Feb-14 03:52N 18°05' W 063°05'0 0.0
2018-Feb-14 03:25N 18°05' W 063°05'0 0.0
2018-Feb-14 02:55N 18°05' W 063°05'0 0.0
2018-Feb-14 02:25N 18°05' W 063°05'0 0.0
2018-Feb-14 01:58N 18°05' W 063°05'0 0.0
2018-Feb-14 01:28N 18°05' W 063°05'0 0.0
2018-Feb-14 00:58N 18°05' W 063°05'0 0.0
2018-Feb-14 00:25N 18°05' W 063°05'0 0.0
2018-Feb-13 23:58N 18°05' W 063°05'0 0.0
2018-Feb-13 23:28N 18°05' W 063°05'0 0.0
2018-Feb-13 22:58N 18°05' W 063°05'0 0.0
2018-Feb-13 22:28N 18°05' W 063°05'0 0.0
2018-Feb-13 21:57N 18°05' W 063°05'0 0.0
2018-Feb-13 21:24N 18°05' W 063°05'0 0.0
2018-Feb-13 20:54N 18°05' W 063°05'0 0.0
2018-Feb-13 20:30N 18°05' W 063°05'0 0.0
2018-Feb-13 20:00N 18°05' W 063°05'0 0.0
2018-Feb-13 19:27N 18°05' W 063°05'0 0.0
2018-Feb-13 19:00N 18°05' W 063°05'0 0.0
2018-Feb-13 18:30N 18°05' W 063°05'0 0.0
2018-Feb-13 18:00N 18°05' W 063°05'0 0.0
2018-Feb-13 17:27N 18°05' W 063°05'0 0.0
2018-Feb-13 17:00N 18°05' W 063°05'0 0.0
2018-Feb-13 16:30N 18°05' W 063°05'0 0.0
2018-Feb-13 16:00N 18°05' W 063°05'0 0.0
2018-Feb-13 15:30N 18°05' W 063°05'0 0.0
2018-Feb-13 15:00N 18°05' W 063°05'0 0.0
2018-Feb-13 14:30N 18°05' W 063°05'0 0.0
2018-Feb-13 13:48N 18°05' W 063°05'0 0.0
2018-Feb-13 13:21N 18°05' W 063°05'0 0.0
2018-Feb-13 12:48N 18°05' W 063°05'0 0.0
2018-Feb-13 12:24N 18°05' W 063°05'0 0.0
2018-Feb-13 11:51N 18°05' W 063°05'0 0.0
2018-Feb-13 11:24N 18°05' W 063°05'0 0.0
2018-Feb-13 10:54N 18°05' W 063°05'0 0.0
2018-Feb-13 10:21N 18°05' W 063°05'0 0.0
2018-Feb-13 09:54N 18°05' W 063°05'0 0.0
2018-Feb-13 09:21N 18°05' W 063°05'0 0.0
2018-Feb-13 08:54N 18°05' W 063°05'0 0.0
2018-Feb-13 08:27N 18°05' W 063°05'0 0.0
2018-Feb-13 07:57N 18°05' W 063°05'0 0.0
2018-Feb-13 07:27N 18°05' W 063°05'0 0.0
2018-Feb-13 06:45N 18°05' W 063°05'0 0.0
2018-Feb-13 06:30N 18°05' W 063°05'0 0.0
2018-Feb-13 06:00N 18°05' W 063°05'0 0.0
2018-Feb-13 05:30N 18°05' W 063°05'0 0.0
2018-Feb-13 05:00N 18°05' W 063°05'0 0.0
2018-Feb-13 04:30N 18°05' W 063°05'0 0.0
2018-Feb-13 04:00N 18°05' W 063°05'0 0.0
2018-Feb-13 03:30N 18°05' W 063°05'0 0.0
2018-Feb-13 02:59N 18°05' W 063°05'0 0.0
2018-Feb-13 02:30N 18°05' W 063°05'0 0.0
2018-Feb-13 02:00N 18°05' W 063°05'0 0.0
2018-Feb-13 01:30N 18°05' W 063°05'0 0.0
2018-Feb-13 01:00N 18°05' W 063°05'0 0.0
2018-Feb-13 00:30N 18°05' W 063°05'0 0.0
2018-Feb-13 00:00N 18°05' W 063°05'0 0.0
2018-Feb-12 23:30N 18°05' W 063°05'0 0.0
2018-Feb-12 23:00N 18°05' W 063°05'0 0.0
2018-Feb-12 22:24N 18°05' W 063°05'0 0.0
2018-Feb-12 21:54N 18°05' W 063°05'0 0.0
2018-Feb-12 21:24N 18°05' W 063°05'0 0.0
2018-Feb-12 20:54N 18°05' W 063°05'0 0.0
2018-Feb-12 20:20N 18°05' W 063°05'2 5.9
2018-Feb-12 19:59N 18°05' W 063°07'3 6.1
2018-Feb-12 19:30N 18°03' W 063°09'610.3
2018-Feb-12 18:58N 18°00' W 063°04'510.1
2018-Feb-12 18:30N 17°57' W 063°00'7 2.9
2018-Feb-12 16:00N 17°54' W 062°53'6 7.8
2018-Feb-12 15:13N 17°57' W 062°59'2 8.1
2018-Feb-12 14:57N 17°58' W 063°01'4 7.7
2018-Feb-12 14:29N 18°00' W 063°04'5 9.1
2018-Feb-12 13:58N 18°02' W 063°08'3 5.6
2018-Feb-12 13:24N 18°05' W 063°07'2 2.8
2018-Feb-12 12:52N 18°05' W 063°05'0 0.0
2018-Feb-12 12:25N 18°05' W 063°05'0 0.0
2018-Feb-12 11:55N 18°05' W 063°05'0 0.0
2018-Feb-12 11:25N 18°05' W 063°05'0 0.0
2018-Feb-12 10:52N 18°05' W 063°05'0 0.0
2018-Feb-12 10:25N 18°05' W 063°05'  

Dump ship's entire track history